createdAt,value
2023-03-31T00:00:02.817Z,23.69
2023-03-31T00:01:02.785Z,23.10
2023-03-31T00:02:02.790Z,23.42
2023-03-31T00:03:02.914Z,23.10
2023-03-31T00:04:02.929Z,23.47
2023-03-31T00:05:02.803Z,23.74
2023-03-31T00:06:02.835Z,23.79
2023-03-31T00:07:02.697Z,23.15
2023-03-31T00:08:02.701Z,23.36
2023-03-31T00:09:02.753Z,23.36
2023-03-31T00:10:16.814Z,23.79
2023-03-31T00:11:02.657Z,23.53
2023-03-31T00:12:02.662Z,23.31
2023-03-31T00:13:02.697Z,23.31
2023-03-31T00:14:02.609Z,23.96
2023-03-31T00:15:02.611Z,23.42
2023-03-31T00:16:02.715Z,23.79
2023-03-31T00:17:02.648Z,23.47
2023-03-31T00:18:02.658Z,23.96
2023-03-31T00:19:02.593Z,23.74
2023-03-31T00:20:02.542Z,23.26
2023-03-31T00:21:02.605Z,23.69
2023-03-31T00:22:02.581Z,24.01
2023-03-31T00:23:02.521Z,23.96
2023-03-31T00:24:02.486Z,23.69
2023-03-31T00:25:02.465Z,23.10
2023-03-31T00:26:02.518Z,23.53
2023-03-31T00:27:02.472Z,23.42
2023-03-31T00:28:02.448Z,23.36
2023-03-31T00:29:02.444Z,23.31
2023-03-31T00:30:02.399Z,23.79
2023-03-31T00:31:02.388Z,23.04
2023-03-31T00:32:02.392Z,23.79
2023-03-31T00:33:02.369Z,23.10
2023-03-31T00:34:02.416Z,23.74
2023-03-31T00:35:02.427Z,23.47
2023-03-31T00:36:02.522Z,23.36
2023-03-31T00:37:02.306Z,23.15
2023-03-31T00:38:02.342Z,23.58
2023-03-31T00:39:02.303Z,23.31
2023-03-31T00:40:02.290Z,23.79
2023-03-31T00:41:02.321Z,23.69
2023-03-31T00:42:02.242Z,23.36
2023-03-31T00:43:02.254Z,23.36
2023-03-31T00:44:02.259Z,23.47
2023-03-31T00:45:02.202Z,23.69
2023-03-31T00:46:02.236Z,23.58
2023-03-31T00:47:02.167Z,23.96
2023-03-31T00:48:02.191Z,23.63
2023-03-31T00:49:02.165Z,23.36
2023-03-31T00:50:02.170Z,23.20
2023-03-31T00:51:02.133Z,22.99
2023-03-31T00:52:02.116Z,23.20
2023-03-31T00:53:02.126Z,23.20
2023-03-31T00:54:02.220Z,23.15
2023-03-31T00:55:02.070Z,23.58
2023-03-31T00:56:02.058Z,23.90
2023-03-31T00:57:02.082Z,23.31
2023-03-31T00:58:02.160Z,23.20
2023-03-31T00:59:02.041Z,23.26
2023-03-31T01:00:01.994Z,23.42
2023-03-31T01:01:02.057Z,23.58
2023-03-31T01:02:01.976Z,23.15
2023-03-31T01:03:02.013Z,23.31
2023-03-31T01:04:02.075Z,23.26
2023-03-31T01:05:01.950Z,23.26
2023-03-31T01:06:01.921Z,23.42
2023-03-31T01:07:01.899Z,23.63
2023-03-31T01:08:01.928Z,23.47
2023-03-31T01:09:01.911Z,23.26
2023-03-31T01:10:01.864Z,23.31
2023-03-31T01:11:01.879Z,23.69
2023-03-31T01:12:01.845Z,23.36
2023-03-31T01:13:01.825Z,23.36
2023-03-31T01:14:01.873Z,23.26
2023-03-31T01:15:01.862Z,23.53
2023-03-31T01:16:01.790Z,24.06
2023-03-31T01:17:01.876Z,23.96
2023-03-31T01:18:01.820Z,23.20
2023-03-31T01:19:01.800Z,23.26
2023-03-31T01:20:01.736Z,24.06
2023-03-31T01:21:01.710Z,23.04
2023-03-31T01:22:01.733Z,23.31
2023-03-31T01:23:01.690Z,23.42
2023-03-31T01:24:01.702Z,23.42
2023-03-31T01:25:01.810Z,23.26
2023-03-31T01:26:01.670Z,23.15
2023-03-31T01:27:01.644Z,23.63
2023-03-31T01:28:01.647Z,23.63
2023-03-31T01:29:01.669Z,23.26
2023-03-31T01:30:01.593Z,23.04
2023-03-31T01:31:01.648Z,23.15
2023-03-31T01:32:01.624Z,23.58
2023-03-31T01:33:01.607Z,23.10
2023-03-31T01:34:01.548Z,23.15
2023-03-31T01:35:01.611Z,23.20
2023-03-31T01:36:01.594Z,23.47
2023-03-31T01:37:01.514Z,23.20
2023-03-31T01:38:01.558Z,23.20
2023-03-31T01:39:01.483Z,23.42
2023-03-31T01:40:01.489Z,23.42
2023-03-31T01:41:01.485Z,23.04
2023-03-31T01:42:01.442Z,23.20
2023-03-31T01:43:01.425Z,23.31
2023-03-31T01:44:01.455Z,23.15
2023-03-31T01:45:01.431Z,23.20
2023-03-31T01:46:01.420Z,23.15
2023-03-31T01:47:01.438Z,23.31
2023-03-31T01:48:01.400Z,23.20
2023-03-31T01:49:01.357Z,23.42
2023-03-31T01:50:01.374Z,23.31
2023-03-31T01:51:01.331Z,23.04
2023-03-31T01:52:01.325Z,23.20
2023-03-31T01:53:01.358Z,23.20
2023-03-31T01:54:01.286Z,23.47
2023-03-31T01:55:01.315Z,23.42
2023-03-31T01:56:01.312Z,23.36
2023-03-31T01:57:01.294Z,23.04
2023-03-31T01:58:01.238Z,23.10
2023-03-31T01:59:01.274Z,23.36
2023-03-31T02:00:01.246Z,23.26
2023-03-31T02:01:01.195Z,23.26
2023-03-31T02:02:01.314Z,23.42
2023-03-31T02:03:01.215Z,23.47
2023-03-31T02:04:01.206Z,22.77
2023-03-31T02:05:01.205Z,23.42
2023-03-31T02:06:01.138Z,23.36
2023-03-31T02:07:01.126Z,23.63
2023-03-31T02:08:01.134Z,23.20
2023-03-31T02:09:01.084Z,23.36
2023-03-31T02:10:01.126Z,23.36
2023-03-31T02:11:01.132Z,23.31
2023-03-31T02:12:01.069Z,23.26
2023-03-31T02:13:01.049Z,23.53
2023-03-31T02:14:01.072Z,23.15
2023-03-31T02:15:01.051Z,22.56
2023-03-31T02:16:01.073Z,23.15
2023-03-31T02:17:00.994Z,22.83
2023-03-31T02:18:01.034Z,23.15
2023-03-31T02:19:00.994Z,23.74
2023-03-31T02:20:00.980Z,23.31
2023-03-31T02:21:00.976Z,23.04
2023-03-31T02:22:00.922Z,23.42
2023-03-31T02:23:00.899Z,23.04
2023-03-31T02:24:00.961Z,23.96
2023-03-31T02:25:00.902Z,23.04
2023-03-31T02:26:00.867Z,23.36
2023-03-31T02:27:00.889Z,23.31
2023-03-31T02:28:00.898Z,23.31
2023-03-31T02:29:00.831Z,23.15
2023-03-31T02:30:00.833Z,23.26
2023-03-31T02:31:00.813Z,23.36
2023-03-31T02:32:01.022Z,23.47
2023-03-31T02:33:00.851Z,22.93
2023-03-31T02:34:00.764Z,23.31
2023-03-31T02:35:00.759Z,23.31
2023-03-31T02:36:00.862Z,23.31
2023-03-31T02:37:00.730Z,23.47
2023-03-31T02:38:00.701Z,23.31
2023-03-31T02:39:00.736Z,23.31
2023-03-31T02:40:00.689Z,23.36
2023-03-31T02:41:00.684Z,23.47
2023-03-31T02:42:00.694Z,23.20
2023-03-31T02:43:00.699Z,23.20
2023-03-31T02:44:00.638Z,23.31
2023-03-31T02:45:00.631Z,23.36
2023-03-31T02:46:00.633Z,23.42
2023-03-31T02:47:00.603Z,23.36
2023-03-31T02:48:00.724Z,23.04
2023-03-31T02:49:00.578Z,23.26
2023-03-31T02:50:00.575Z,23.26
2023-03-31T02:51:00.593Z,23.04
2023-03-31T02:52:00.529Z,23.31
2023-03-31T02:53:00.507Z,23.53
2023-03-31T02:54:00.550Z,23.04
2023-03-31T02:55:00.484Z,23.42
2023-03-31T02:56:00.493Z,23.04
2023-03-31T02:57:00.586Z,23.58
2023-03-31T02:58:00.444Z,22.88
2023-03-31T02:59:00.435Z,23.26
2023-03-31T03:00:00.452Z,22.83
2023-03-31T03:01:00.455Z,22.77
2023-03-31T03:02:00.431Z,22.93
2023-03-31T03:03:00.469Z,23.10
2023-03-31T03:04:00.367Z,23.26
2023-03-31T03:05:00.352Z,23.15
2023-03-31T03:06:01.791Z,23.31
2023-03-31T03:07:00.363Z,23.10
2023-03-31T03:08:00.325Z,23.20
2023-03-31T03:09:00.307Z,23.15
2023-03-31T03:10:00.309Z,22.83
2023-03-31T03:11:00.291Z,23.20
2023-03-31T03:12:00.273Z,23.10
2023-03-31T03:13:00.272Z,23.04
2023-03-31T03:14:00.265Z,23.04
2023-03-31T03:15:00.239Z,23.31
2023-03-31T03:16:00.260Z,23.10
2023-03-31T03:17:00.299Z,23.15
2023-03-31T03:18:00.343Z,23.58
2023-03-31T03:19:00.219Z,23.53
2023-03-31T03:20:00.245Z,23.31
2023-03-31T03:21:00.157Z,22.67
2023-03-31T03:22:00.164Z,23.04
2023-03-31T03:23:00.122Z,23.26
2023-03-31T03:24:00.132Z,22.83
2023-03-31T03:25:00.161Z,23.20
2023-03-31T03:26:00.135Z,23.42
2023-03-31T03:27:00.113Z,23.58
2023-03-31T03:28:00.147Z,22.61
2023-03-31T03:29:00.040Z,23.53
2023-03-31T03:30:00.050Z,22.72
2023-03-31T03:31:00.053Z,23.26
2023-03-31T03:31:59.996Z,23.15
2023-03-31T03:33:00.019Z,23.10
2023-03-31T03:33:59.998Z,23.15
2023-03-31T03:34:59.996Z,22.99
2023-03-31T03:35:59.981Z,23.15
2023-03-31T03:37:00.056Z,23.63
2023-03-31T03:37:59.921Z,23.42
2023-03-31T03:38:59.920Z,24.22
2023-03-31T03:39:59.973Z,23.04
2023-03-31T03:40:59.893Z,23.31
2023-03-31T03:41:59.885Z,23.04
2023-03-31T03:42:59.897Z,22.50
2023-03-31T03:43:59.842Z,23.15
2023-03-31T03:44:59.840Z,22.67
2023-03-31T03:45:59.923Z,22.83
2023-03-31T03:46:59.827Z,23.15
2023-03-31T03:47:59.841Z,23.42
2023-03-31T03:48:59.819Z,22.67
2023-03-31T03:49:59.781Z,22.83
2023-03-31T03:50:59.758Z,23.15
2023-03-31T03:51:59.793Z,22.88
2023-03-31T03:52:59.738Z,22.67
2023-03-31T03:53:59.746Z,23.15
2023-03-31T03:54:59.741Z,22.77
2023-03-31T03:55:59.691Z,22.77
2023-03-31T03:57:02.502Z,22.72
2023-03-31T03:58:02.577Z,23.20
2023-03-31T03:58:59.645Z,23.15
2023-03-31T03:59:59.664Z,22.67
2023-03-31T04:00:59.649Z,22.50
2023-03-31T04:01:59.840Z,23.20
2023-03-31T04:02:59.686Z,23.47
2023-03-31T04:03:59.582Z,23.15
2023-03-31T04:04:59.662Z,23.36
2023-03-31T04:05:59.622Z,23.53
2023-03-31T04:06:59.549Z,23.10
2023-03-31T04:07:59.569Z,23.31
2023-03-31T04:08:59.540Z,23.15
2023-03-31T04:09:59.504Z,23.31
2023-03-31T04:10:59.637Z,23.36
2023-03-31T04:11:59.771Z,23.58
2023-03-31T04:12:59.633Z,23.15
2023-03-31T04:13:59.515Z,23.79
2023-03-31T04:14:59.503Z,23.42
2023-03-31T04:15:59.503Z,23.96
2023-03-31T04:16:59.481Z,23.63
2023-03-31T04:17:59.616Z,23.69
2023-03-31T04:18:59.410Z,23.90
2023-03-31T04:19:59.454Z,23.85
2023-03-31T04:20:59.749Z,23.69
2023-03-31T04:21:59.364Z,23.69
2023-03-31T04:22:59.469Z,24.06
2023-03-31T04:23:59.362Z,23.58
2023-03-31T04:25:00.177Z,24.33
2023-03-31T04:25:59.313Z,24.12
2023-03-31T04:26:59.297Z,23.96
2023-03-31T04:27:59.330Z,23.96
2023-03-31T04:28:59.249Z,24.33
2023-03-31T04:29:59.241Z,24.17
2023-03-31T04:30:59.266Z,24.17
2023-03-31T04:31:59.306Z,23.85
2023-03-31T04:32:59.251Z,24.06
2023-03-31T04:33:59.227Z,24.28
2023-03-31T04:34:59.178Z,23.90
2023-03-31T04:35:59.235Z,24.76
2023-03-31T04:36:59.187Z,24.71
2023-03-31T04:37:59.409Z,24.81
2023-03-31T04:38:59.139Z,24.55
2023-03-31T04:39:59.106Z,24.76
2023-03-31T04:40:59.109Z,24.71
2023-03-31T04:41:59.098Z,24.76
2023-03-31T04:42:59.074Z,25.08
2023-03-31T04:43:59.095Z,24.76
2023-03-31T04:44:59.043Z,24.65
2023-03-31T04:45:59.092Z,24.55
2023-03-31T04:46:59.078Z,24.92
2023-03-31T04:47:59.000Z,24.81
2023-03-31T04:48:59.000Z,24.92
2023-03-31T04:49:59.012Z,25.30
2023-03-31T04:50:58.965Z,25.08
2023-03-31T04:51:58.946Z,25.24
2023-03-31T04:52:58.940Z,25.03
2023-03-31T04:53:58.937Z,25.19
2023-03-31T04:54:58.854Z,25.03
2023-03-31T04:55:58.839Z,25.03
2023-03-31T04:56:58.903Z,24.92
2023-03-31T04:57:58.817Z,25.08
2023-03-31T04:58:58.830Z,24.76
2023-03-31T04:59:58.805Z,25.14
2023-03-31T05:00:58.942Z,24.92
2023-03-31T05:01:58.772Z,25.51
2023-03-31T05:02:58.824Z,25.14
2023-03-31T05:03:58.749Z,25.19
2023-03-31T05:04:58.751Z,25.19
2023-03-31T05:05:58.799Z,25.03
2023-03-31T05:06:58.747Z,25.51
2023-03-31T05:07:58.783Z,25.08
2023-03-31T05:08:58.726Z,25.14
2023-03-31T05:09:58.701Z,25.08
2023-03-31T05:10:58.665Z,25.24
2023-03-31T05:11:58.675Z,25.24
2023-03-31T05:12:58.625Z,25.35
2023-03-31T05:13:58.611Z,24.92
2023-03-31T05:14:58.799Z,25.19
2023-03-31T05:15:58.638Z,25.08
2023-03-31T05:16:58.617Z,25.41
2023-03-31T05:17:58.573Z,25.24
2023-03-31T05:18:58.801Z,25.03
2023-03-31T05:19:58.549Z,24.87
2023-03-31T05:20:58.523Z,25.08
2023-03-31T05:21:58.663Z,25.03
2023-03-31T05:22:58.520Z,24.98
2023-03-31T05:23:58.556Z,24.92
2023-03-31T05:24:58.478Z,25.30
2023-03-31T05:25:58.519Z,25.08
2023-03-31T05:26:58.468Z,24.98
2023-03-31T05:27:58.450Z,25.19
2023-03-31T05:28:58.533Z,25.03
2023-03-31T05:29:58.403Z,25.30
2023-03-31T05:30:58.459Z,24.92
2023-03-31T05:31:58.411Z,25.08
2023-03-31T05:32:58.406Z,25.19
2023-03-31T05:33:58.364Z,25.03
2023-03-31T05:34:58.347Z,25.24
2023-03-31T05:35:58.406Z,25.41
2023-03-31T05:36:58.304Z,25.30
2023-03-31T05:37:58.314Z,25.08
2023-03-31T05:38:58.303Z,24.98
2023-03-31T05:39:58.298Z,25.24
2023-03-31T05:40:58.309Z,25.30
2023-03-31T05:41:58.277Z,25.14
2023-03-31T05:42:58.271Z,25.14
2023-03-31T05:43:58.275Z,25.19
2023-03-31T05:44:58.219Z,25.08
2023-03-31T05:45:58.308Z,24.87
2023-03-31T05:46:58.186Z,25.03
2023-03-31T05:47:58.243Z,24.92
2023-03-31T05:48:59.702Z,24.81
2023-03-31T05:49:58.217Z,24.98
2023-03-31T05:50:58.735Z,25.14
2023-03-31T05:51:58.118Z,24.71
2023-03-31T05:52:58.232Z,24.92
2023-03-31T05:53:58.097Z,25.03
2023-03-31T05:54:58.075Z,24.71
2023-03-31T05:55:58.129Z,25.24
2023-03-31T05:56:58.109Z,24.87
2023-03-31T05:57:58.033Z,25.08
2023-03-31T05:58:58.154Z,24.87
2023-03-31T05:59:58.021Z,25.03
2023-03-31T06:00:58.018Z,24.44
2023-03-31T06:01:58.144Z,24.65
2023-03-31T06:02:58.147Z,24.81
2023-03-31T06:03:58.094Z,24.92
2023-03-31T06:04:57.981Z,24.81
2023-03-31T06:05:57.958Z,24.81
2023-03-31T06:06:57.930Z,24.71
2023-03-31T06:07:57.928Z,24.60
2023-03-31T06:08:57.969Z,24.76
2023-03-31T06:09:57.911Z,24.71
2023-03-31T06:10:57.910Z,25.08
2023-03-31T06:11:57.859Z,24.33
2023-03-31T06:12:57.840Z,24.98
2023-03-31T06:13:57.844Z,24.92
2023-03-31T06:14:57.849Z,24.81
2023-03-31T06:15:58.122Z,24.44
2023-03-31T06:16:58.188Z,24.76
2023-03-31T06:17:57.889Z,25.19
2023-03-31T06:18:57.779Z,24.87
2023-03-31T06:19:57.868Z,25.08
2023-03-31T06:20:57.738Z,24.76
2023-03-31T06:21:57.797Z,24.81
2023-03-31T06:22:57.727Z,24.92
2023-03-31T06:23:57.736Z,24.76
2023-03-31T06:24:57.760Z,24.55
2023-03-31T06:25:57.697Z,24.71
2023-03-31T06:26:57.663Z,24.87
2023-03-31T06:27:57.646Z,24.76
2023-03-31T06:28:57.702Z,24.76
2023-03-31T06:29:57.656Z,24.60
2023-03-31T06:30:57.623Z,24.65
2023-03-31T06:31:57.625Z,24.60
2023-03-31T06:32:57.768Z,24.55
2023-03-31T06:33:57.717Z,24.60
2023-03-31T06:34:57.592Z,24.81
2023-03-31T06:35:57.646Z,24.87
2023-03-31T06:36:57.525Z,24.60
2023-03-31T06:37:57.514Z,24.49
2023-03-31T06:38:57.528Z,24.60
2023-03-31T06:39:57.517Z,24.65
2023-03-31T06:40:57.491Z,24.71
2023-03-31T06:41:57.508Z,24.55
2023-03-31T06:42:57.520Z,24.87
2023-03-31T06:43:57.442Z,24.49
2023-03-31T06:44:57.433Z,24.76
2023-03-31T06:45:57.476Z,24.65
2023-03-31T06:46:57.411Z,24.65
2023-03-31T06:47:57.413Z,24.12
2023-03-31T06:48:57.372Z,24.87
2023-03-31T06:49:57.367Z,24.01
2023-03-31T06:50:57.346Z,24.60
2023-03-31T06:51:57.362Z,24.60
2023-03-31T06:52:57.361Z,23.90
2023-03-31T06:53:57.308Z,24.81
2023-03-31T06:54:57.329Z,24.71
2023-03-31T06:55:57.323Z,24.81
2023-03-31T06:56:57.338Z,24.55
2023-03-31T06:57:57.255Z,23.96
2023-03-31T06:58:57.289Z,24.55
2023-03-31T06:59:57.291Z,24.60
2023-03-31T07:00:57.390Z,24.65
2023-03-31T07:01:57.335Z,23.90
2023-03-31T07:02:57.245Z,24.92
2023-03-31T07:03:57.187Z,24.81
2023-03-31T07:04:57.172Z,24.22
2023-03-31T07:05:57.159Z,24.71
2023-03-31T07:06:57.195Z,24.33
2023-03-31T07:07:57.127Z,24.76
2023-03-31T07:08:57.106Z,24.12
2023-03-31T07:09:57.158Z,24.71
2023-03-31T07:10:57.156Z,24.71
2023-03-31T07:11:57.146Z,24.92
2023-03-31T07:12:57.080Z,24.44
2023-03-31T07:13:57.046Z,24.81
2023-03-31T07:14:57.053Z,24.71
2023-03-31T07:15:57.131Z,24.65
2023-03-31T07:16:57.009Z,24.60
2023-03-31T07:17:57.043Z,23.85
2023-03-31T07:18:56.984Z,24.71
2023-03-31T07:19:57.017Z,24.60
2023-03-31T07:20:56.964Z,24.17
2023-03-31T07:21:56.954Z,24.55
2023-03-31T07:22:56.936Z,24.98
2023-03-31T07:23:56.913Z,24.81
2023-03-31T07:24:56.888Z,24.60
2023-03-31T07:25:56.981Z,24.76
2023-03-31T07:26:56.886Z,24.76
2023-03-31T07:27:56.862Z,24.38
2023-03-31T07:28:56.874Z,24.87
2023-03-31T07:29:56.869Z,24.87
2023-03-31T07:30:56.807Z,24.49
2023-03-31T07:31:56.956Z,24.71
2023-03-31T07:32:56.828Z,24.60
2023-03-31T07:33:56.787Z,24.55
2023-03-31T07:34:56.765Z,24.60
2023-03-31T07:36:08.267Z,24.65
2023-03-31T07:36:56.828Z,24.65
2023-03-31T07:37:56.722Z,24.76
2023-03-31T07:38:56.744Z,24.71
2023-03-31T07:39:56.733Z,24.87
2023-03-31T07:41:07.640Z,24.60
2023-03-31T07:41:56.711Z,24.92
2023-03-31T07:42:56.716Z,24.55
2023-03-31T07:43:56.632Z,24.55
2023-03-31T07:44:56.657Z,24.87
2023-03-31T07:45:56.668Z,24.76
2023-03-31T07:46:56.900Z,24.76
2023-03-31T07:47:56.641Z,24.55
2023-03-31T07:48:56.587Z,24.44
2023-03-31T07:49:56.562Z,24.87
2023-03-31T07:50:56.559Z,24.55
2023-03-31T07:51:56.592Z,24.98
2023-03-31T07:52:56.621Z,24.38
2023-03-31T07:53:56.522Z,24.87
2023-03-31T07:54:56.529Z,24.65
2023-03-31T07:55:56.481Z,24.81
2023-03-31T07:56:56.525Z,24.44
2023-03-31T07:57:56.457Z,24.81
2023-03-31T07:58:57.829Z,24.87
2023-03-31T07:59:56.482Z,24.76
2023-03-31T08:00:56.458Z,24.76
2023-03-31T08:01:56.457Z,24.28
2023-03-31T08:02:56.555Z,24.12
2023-03-31T08:03:56.422Z,24.55
2023-03-31T08:04:56.422Z,24.98
2023-03-31T08:05:56.357Z,24.81
2023-03-31T08:06:56.346Z,24.92
2023-03-31T08:07:56.365Z,24.06
2023-03-31T08:08:56.311Z,24.06
2023-03-31T08:09:56.332Z,24.55
2023-03-31T08:10:56.265Z,24.92
2023-03-31T08:11:56.306Z,24.06
2023-03-31T08:12:56.267Z,24.87
2023-03-31T08:13:56.237Z,24.44
2023-03-31T08:14:56.238Z,24.81
2023-03-31T08:15:56.268Z,24.65
2023-03-31T08:16:56.227Z,24.33
2023-03-31T08:17:56.243Z,24.65
2023-03-31T08:18:56.176Z,24.55
2023-03-31T08:19:56.185Z,24.76
2023-03-31T08:20:56.163Z,24.12
2023-03-31T08:21:56.158Z,24.17
2023-03-31T08:22:56.121Z,23.96
2023-03-31T08:23:56.135Z,24.17
2023-03-31T08:24:56.105Z,24.01
2023-03-31T08:25:56.116Z,24.44
2023-03-31T08:26:56.075Z,24.92
2023-03-31T08:27:56.064Z,24.98
2023-03-31T08:28:56.062Z,24.92
2023-03-31T08:29:56.038Z,24.87
2023-03-31T08:30:56.112Z,25.46
2023-03-31T08:31:56.047Z,26.26
2023-03-31T08:32:56.075Z,26.21
2023-03-31T08:33:55.980Z,26.86
2023-03-31T08:34:55.987Z,27.23
2023-03-31T08:35:55.972Z,27.77
2023-03-31T08:36:56.136Z,28.31
2023-03-31T08:37:55.992Z,28.25
2023-03-31T08:38:55.898Z,28.74
2023-03-31T08:39:56.025Z,28.52
2023-03-31T08:40:55.982Z,28.57
2023-03-31T08:41:55.892Z,28.84
2023-03-31T08:42:55.866Z,28.74
2023-03-31T08:43:55.947Z,28.25
2023-03-31T08:44:55.874Z,28.25
2023-03-31T08:45:56.296Z,28.31
2023-03-31T08:46:55.807Z,28.14
2023-03-31T08:47:55.894Z,27.88
2023-03-31T08:48:55.779Z,27.98
2023-03-31T08:49:55.781Z,27.77
2023-03-31T08:50:55.771Z,27.61
2023-03-31T08:51:55.748Z,27.66
2023-03-31T08:52:55.760Z,27.88
2023-03-31T08:53:55.765Z,27.71
2023-03-31T08:54:55.685Z,27.66
2023-03-31T08:55:55.743Z,27.23
2023-03-31T08:56:55.709Z,26.91
2023-03-31T08:57:55.661Z,27.18
2023-03-31T08:58:55.708Z,27.02
2023-03-31T08:59:55.683Z,26.91
2023-03-31T09:00:55.703Z,26.64
2023-03-31T09:01:56.910Z,27.02
2023-03-31T09:02:55.763Z,26.64
2023-03-31T09:03:55.893Z,26.96
2023-03-31T09:04:55.566Z,26.80
2023-03-31T09:06:12.837Z,26.69
2023-03-31T09:06:55.541Z,26.10
2023-03-31T09:07:55.564Z,26.43
2023-03-31T09:08:55.532Z,26.69
2023-03-31T09:09:55.501Z,26.43
2023-03-31T09:10:55.521Z,25.83
2023-03-31T09:11:55.494Z,26.00
2023-03-31T09:12:55.448Z,25.78
2023-03-31T09:13:55.472Z,26.26
2023-03-31T09:14:55.433Z,26.10
2023-03-31T09:15:55.444Z,25.89
2023-03-31T09:16:55.452Z,26.00
2023-03-31T09:17:55.434Z,26.05
2023-03-31T09:18:55.446Z,26.05
2023-03-31T09:19:55.361Z,25.51
2023-03-31T09:20:55.374Z,25.83
2023-03-31T09:21:55.341Z,26.05
2023-03-31T09:22:55.366Z,25.24
2023-03-31T09:23:55.308Z,26.10
2023-03-31T09:24:55.326Z,26.32
2023-03-31T09:25:55.295Z,25.19
2023-03-31T09:26:55.279Z,25.67
2023-03-31T09:27:55.275Z,25.14
2023-03-31T09:28:55.243Z,25.41
2023-03-31T09:29:55.265Z,25.35
2023-03-31T09:30:55.221Z,25.51
2023-03-31T09:31:55.227Z,25.51
2023-03-31T09:32:55.269Z,25.51
2023-03-31T09:33:55.173Z,25.35
2023-03-31T09:34:55.162Z,25.19
2023-03-31T09:35:55.185Z,25.41
2023-03-31T09:36:55.182Z,25.19
2023-03-31T09:37:55.159Z,25.08
2023-03-31T09:38:55.232Z,25.03
2023-03-31T09:39:55.092Z,25.24
2023-03-31T09:40:55.082Z,24.98
2023-03-31T09:41:55.123Z,25.30
2023-03-31T09:42:55.073Z,25.03
2023-03-31T09:43:55.063Z,25.14
2023-03-31T09:44:55.055Z,25.14
2023-03-31T09:46:09.570Z,25.03
2023-03-31T09:46:55.114Z,25.14
2023-03-31T09:49:06.540Z,24.65
2023-03-31T09:50:07.532Z,24.92
2023-03-31T09:51:07.563Z,24.87
2023-03-31T09:52:07.506Z,24.92
2023-03-31T09:53:07.502Z,24.49
2023-03-31T09:54:07.496Z,25.35
2023-03-31T09:55:07.468Z,24.76
2023-03-31T09:56:07.708Z,24.65
2023-03-31T09:57:07.465Z,24.65
2023-03-31T09:58:07.420Z,24.71
2023-03-31T09:59:07.517Z,24.71
2023-03-31T10:00:07.411Z,24.81
2023-03-31T10:01:07.686Z,24.92
2023-03-31T10:02:07.426Z,24.76
2023-03-31T10:03:07.847Z,24.65
2023-03-31T10:04:07.359Z,24.71
2023-03-31T10:05:07.529Z,24.65
2023-03-31T10:06:07.317Z,24.92
2023-03-31T10:07:07.371Z,24.92
2023-03-31T10:08:07.354Z,24.12
2023-03-31T10:09:07.353Z,24.22
2023-03-31T10:10:07.264Z,24.81
2023-03-31T10:11:07.407Z,24.65
2023-03-31T10:12:07.248Z,24.76
2023-03-31T10:13:07.250Z,24.06
2023-03-31T10:14:07.193Z,24.71
2023-03-31T10:15:07.171Z,24.49
2023-03-31T10:16:07.334Z,24.71
2023-03-31T10:17:07.249Z,24.60
2023-03-31T10:18:07.199Z,23.90
2023-03-31T10:19:07.296Z,24.12
2023-03-31T10:20:07.177Z,24.49
2023-03-31T10:21:07.409Z,24.28
2023-03-31T10:22:07.119Z,24.06
2023-03-31T10:23:07.154Z,23.96
2023-03-31T10:24:07.126Z,24.22
2023-03-31T10:25:07.074Z,24.12
2023-03-31T10:26:07.165Z,24.01
2023-03-31T10:27:07.054Z,24.17
2023-03-31T10:28:07.083Z,23.96
2023-03-31T10:29:07.023Z,24.22
2023-03-31T10:30:06.971Z,23.96
2023-03-31T10:31:07.200Z,24.06
2023-03-31T10:32:06.994Z,23.47
2023-03-31T10:33:19.209Z,24.28
2023-03-31T10:34:06.950Z,24.33
2023-03-31T10:35:06.954Z,23.96
2023-03-31T10:36:06.975Z,23.79
2023-03-31T10:37:06.919Z,24.06
2023-03-31T10:38:06.925Z,24.28
2023-03-31T10:39:06.874Z,23.79
2023-03-31T10:40:06.869Z,24.06
2023-03-31T10:41:07.080Z,23.96
2023-03-31T10:42:06.870Z,23.69
2023-03-31T10:43:06.835Z,24.22
2023-03-31T10:44:06.833Z,24.44
2023-03-31T10:45:06.794Z,23.79
2023-03-31T10:46:06.765Z,23.58
2023-03-31T10:47:06.789Z,24.33
2023-03-31T10:48:06.836Z,23.90
2023-03-31T10:49:06.769Z,23.63
2023-03-31T10:50:06.707Z,24.12
2023-03-31T10:51:06.835Z,23.79
2023-03-31T10:52:06.691Z,23.79
2023-03-31T10:53:06.716Z,23.47
2023-03-31T10:54:06.724Z,23.58
2023-03-31T10:55:06.652Z,24.06
2023-03-31T10:56:06.663Z,23.26
2023-03-31T10:57:06.636Z,23.58
2023-03-31T10:58:06.633Z,23.85
2023-03-31T10:59:06.719Z,23.90
2023-03-31T11:00:06.582Z,23.26
2023-03-31T11:01:06.794Z,23.10
2023-03-31T11:02:06.616Z,23.42
2023-03-31T11:03:06.660Z,23.20
2023-03-31T11:04:06.577Z,23.96
2023-03-31T11:05:06.574Z,23.20
2023-03-31T11:06:06.490Z,23.63
2023-03-31T11:07:06.490Z,24.01
2023-03-31T11:08:06.543Z,23.90
2023-03-31T11:09:06.504Z,24.01
2023-03-31T11:10:06.452Z,23.31
2023-03-31T11:11:06.765Z,23.31
2023-03-31T11:12:06.551Z,23.74
2023-03-31T11:13:06.437Z,23.31
2023-03-31T11:14:06.455Z,23.58
2023-03-31T11:15:06.408Z,23.74
2023-03-31T11:16:06.448Z,23.36
2023-03-31T11:17:06.406Z,23.96
2023-03-31T11:18:06.368Z,23.26
2023-03-31T11:19:06.353Z,23.53
2023-03-31T11:20:06.307Z,23.58
2023-03-31T11:21:06.648Z,23.63
2023-03-31T11:22:06.301Z,23.31
2023-03-31T11:23:06.285Z,23.31
2023-03-31T11:24:06.266Z,23.74
2023-03-31T11:25:06.339Z,23.36
2023-03-31T11:26:06.221Z,23.15
2023-03-31T11:27:06.226Z,23.31
2023-03-31T11:28:06.206Z,23.53
2023-03-31T11:29:06.210Z,23.10
2023-03-31T11:30:06.184Z,23.31
2023-03-31T11:31:06.270Z,22.56
2023-03-31T11:32:06.237Z,23.20
2023-03-31T11:33:06.159Z,23.10
2023-03-31T11:34:06.212Z,23.20
2023-03-31T11:35:06.148Z,23.53
2023-03-31T11:36:06.199Z,23.53
2023-03-31T11:37:06.204Z,22.72
2023-03-31T11:38:06.091Z,23.42
2023-03-31T11:39:06.059Z,22.88
2023-03-31T11:40:06.107Z,23.47
2023-03-31T11:41:06.195Z,22.88
2023-03-31T11:42:06.223Z,22.88
2023-03-31T11:43:06.002Z,22.61
2023-03-31T11:44:06.046Z,22.99
2023-03-31T11:45:06.041Z,23.42
2023-03-31T11:46:06.232Z,22.61
2023-03-31T11:47:06.033Z,23.15
2023-03-31T11:48:07.507Z,23.26
2023-03-31T11:49:05.948Z,23.58
2023-03-31T11:50:05.938Z,23.15
2023-03-31T11:51:05.924Z,23.42
2023-03-31T11:52:06.018Z,23.20
2023-03-31T11:53:05.903Z,22.77
2023-03-31T11:54:05.865Z,22.83
2023-03-31T11:55:05.996Z,22.93
2023-03-31T11:56:05.946Z,22.72
2023-03-31T11:57:05.859Z,23.31
2023-03-31T11:58:05.810Z,22.50
2023-03-31T11:59:05.908Z,22.83
2023-03-31T12:00:05.798Z,23.20
2023-03-31T12:01:05.793Z,22.93
2023-03-31T12:02:05.768Z,23.31
2023-03-31T12:03:05.846Z,22.72
2023-03-31T12:04:05.821Z,22.83
2023-03-31T12:05:05.777Z,23.31
2023-03-31T12:06:05.949Z,23.58
2023-03-31T12:07:05.684Z,22.83
2023-03-31T12:08:05.891Z,22.50
2023-03-31T12:09:05.694Z,22.67
2023-03-31T12:10:05.721Z,22.99
2023-03-31T12:11:05.628Z,22.50
2023-03-31T12:12:05.654Z,22.56
2023-03-31T12:13:05.645Z,22.50
2023-03-31T12:14:05.595Z,23.36
2023-03-31T12:15:05.628Z,22.99
2023-03-31T12:16:05.709Z,22.77
2023-03-31T12:17:05.569Z,22.88
2023-03-31T12:18:05.575Z,22.99
2023-03-31T12:19:05.523Z,22.67
2023-03-31T12:20:05.535Z,23.15
2023-03-31T12:21:05.544Z,22.88
2023-03-31T12:22:05.496Z,22.67
2023-03-31T12:23:05.489Z,22.34
2023-03-31T12:24:07.183Z,22.83
2023-03-31T12:25:05.544Z,22.99
2023-03-31T12:26:05.617Z,22.99
2023-03-31T12:27:05.497Z,22.72
2023-03-31T12:28:05.420Z,22.99
2023-03-31T12:29:05.394Z,22.56
2023-03-31T12:30:05.410Z,22.77
2023-03-31T12:31:05.420Z,22.67
2023-03-31T12:32:05.346Z,22.72
2023-03-31T12:33:05.397Z,22.88
2023-03-31T12:34:05.429Z,22.88
2023-03-31T12:35:05.329Z,22.45
2023-03-31T12:36:05.527Z,22.72
2023-03-31T12:37:05.306Z,22.56
2023-03-31T12:38:05.330Z,22.56
2023-03-31T12:39:05.265Z,22.40
2023-03-31T12:40:05.280Z,22.40
2023-03-31T12:41:05.231Z,22.61
2023-03-31T12:42:05.241Z,22.67
2023-03-31T12:43:05.201Z,22.50
2023-03-31T12:44:05.268Z,22.29
2023-03-31T12:45:05.199Z,22.40
2023-03-31T12:46:05.332Z,22.72
2023-03-31T12:47:05.244Z,22.45
2023-03-31T12:48:05.159Z,22.67
2023-03-31T12:49:05.150Z,22.24
2023-03-31T12:50:05.128Z,22.99
2023-03-31T12:51:05.301Z,22.50
2023-03-31T12:52:05.088Z,22.13
2023-03-31T12:53:05.077Z,22.34